createdAt,value
2019-03-03T00:00:36.068Z,46.63
2019-03-03T00:03:06.514Z,44.27
2019-03-03T00:05:36.973Z,47.40
2019-03-03T00:08:07.402Z,48.13
2019-03-03T00:10:37.799Z,41.07
2019-03-03T00:13:09.305Z,45.50
2019-03-03T00:15:39.641Z,48.93
2019-03-03T00:18:09.986Z,45.03
2019-03-03T00:20:40.336Z,47.47
2019-03-03T00:23:10.679Z,41.97
2019-03-03T00:25:41.022Z,46.43
2019-03-03T00:28:11.365Z,44.27
2019-03-03T00:30:41.743Z,47.07
2019-03-03T00:33:12.113Z,47.60
2019-03-03T00:35:42.455Z,44.27
2019-03-03T00:38:14.448Z,44.57
2019-03-03T00:40:52.580Z,45.33
2019-03-03T00:43:33.526Z,42.90
2019-03-03T00:46:21.949Z,46.63
2019-03-03T00:48:53.943Z,49.73
2019-03-03T00:51:34.852Z,41.57
2019-03-03T00:54:16.209Z,45.10
2019-03-03T00:56:48.204Z,44.70
2019-03-03T00:59:36.519Z,40.77
2019-03-03T01:02:08.806Z,44.10
2019-03-03T01:04:49.630Z,37.50
2019-03-03T01:07:21.573Z,39.00
2019-03-03T01:09:53.555Z,37.63
2019-03-03T01:12:42.195Z,39.00
2019-03-03T01:15:17.255Z,38.97
2019-03-03T01:17:49.220Z,39.30
2019-03-03T01:20:21.217Z,43.93
2019-03-03T01:22:58.948Z,49.70
2019-03-03T01:25:29.292Z,39.93
2019-03-03T01:27:59.831Z,40.30
2019-03-03T01:30:30.172Z,43.00
2019-03-03T01:33:00.533Z,41.20
2019-03-03T01:35:30.848Z,43.30
2019-03-03T01:38:01.107Z,45.20
2019-03-03T01:40:31.411Z,45.47
2019-03-03T01:43:01.741Z,43.43
2019-03-03T01:45:32.386Z,44.87
2019-03-03T01:48:02.743Z,44.50
2019-03-03T01:50:33.093Z,46.33
2019-03-03T01:53:03.374Z,44.37
2019-03-03T01:55:33.668Z,49.20
2019-03-03T01:58:03.994Z,47.20
2019-03-03T02:00:35.125Z,46.07
2019-03-03T02:03:05.395Z,43.93
2019-03-03T02:05:35.670Z,46.97
2019-03-03T02:08:05.928Z,48.43
2019-03-03T02:10:36.200Z,46.07
2019-03-03T02:13:07.221Z,49.67
2019-03-03T02:15:37.557Z,45.20
2019-03-03T02:18:07.826Z,54.03
2019-03-03T02:20:38.163Z,49.47
2019-03-03T02:23:08.466Z,45.53
2019-03-03T02:25:38.818Z,48.30
2019-03-03T02:28:09.084Z,47.40
2019-03-03T02:30:39.374Z,47.60
2019-03-03T02:33:09.826Z,47.43
2019-03-03T02:35:41.194Z,44.60
2019-03-03T02:38:11.458Z,43.50
2019-03-03T02:40:41.738Z,47.77
2019-03-03T02:43:12.020Z,46.80
2019-03-03T02:45:42.313Z,47.03
2019-03-03T02:48:12.684Z,46.47
2019-03-03T02:50:43.030Z,50.37
2019-03-03T02:53:13.365Z,47.33
2019-03-03T02:55:43.724Z,48.03
2019-03-03T02:58:14.052Z,50.30
2019-03-03T03:00:45.961Z,42.93
2019-03-03T03:03:19.383Z,46.97
2019-03-03T03:05:52.932Z,42.83
2019-03-03T03:08:30.714Z,47.60
2019-03-03T03:11:05.344Z,46.23
2019-03-03T03:13:40.799Z,54.57
2019-03-03T03:16:15.410Z,46.17
2019-03-03T03:18:48.463Z,47.33
2019-03-03T03:21:20.371Z,46.97
2019-03-03T03:23:52.296Z,45.70
2019-03-03T03:26:24.241Z,47.67
2019-03-03T03:29:05.344Z,45.20
2019-03-03T03:31:37.275Z,44.00
2019-03-03T03:34:09.209Z,47.00
2019-03-03T03:36:59.551Z,45.80
2019-03-03T03:39:47.779Z,45.03
2019-03-03T03:42:19.791Z,43.13
2019-03-03T03:45:00.639Z,50.43
2019-03-03T03:47:38.795Z,41.07
2019-03-03T03:50:13.756Z,51.17
2019-03-03T03:52:55.006Z,46.80
2019-03-03T03:55:26.996Z,41.70
2019-03-03T03:58:05.104Z,41.93
2019-03-03T04:00:39.974Z,38.50
2019-03-03T04:03:28.238Z,39.70
2019-03-03T04:06:00.224Z,40.97
2019-03-03T04:08:35.352Z,46.17
2019-03-03T04:11:19.623Z,44.37
2019-03-03T04:13:55.242Z,42.83
2019-03-03T04:16:30.084Z,45.43
2019-03-03T04:19:02.015Z,39.70
2019-03-03T04:21:39.654Z,39.57
2019-03-03T04:24:27.927Z,41.10
2019-03-03T04:27:16.011Z,37.87
2019-03-03T04:29:53.649Z,40.63
2019-03-03T04:32:40.726Z,39.23
2019-03-03T04:35:16.061Z,39.37
2019-03-03T04:37:57.352Z,38.27
2019-03-03T04:40:35.017Z,41.87
2019-03-03T04:43:09.585Z,38.40
2019-03-03T04:45:41.583Z,30.73
2019-03-03T04:48:28.849Z,37.40
2019-03-03T04:51:17.205Z,42.73
2019-03-03T04:54:05.625Z,37.27
2019-03-03T04:56:46.301Z,38.43
2019-03-03T04:59:23.938Z,41.80
2019-03-03T05:02:01.811Z,40.10
2019-03-03T05:04:36.660Z,41.17
2019-03-03T05:07:08.664Z,38.33
2019-03-03T05:09:49.070Z,36.67
2019-03-03T05:12:21.298Z,36.30
2019-03-03T05:14:53.285Z,39.60
2019-03-03T05:17:41.673Z,40.50
2019-03-03T05:20:16.633Z,39.07
2019-03-03T05:22:46.911Z,40.13
2019-03-03T05:25:17.190Z,40.33
2019-03-03T05:27:47.481Z,40.50
2019-03-03T05:30:17.749Z,34.73
2019-03-03T05:32:48.065Z,41.77
2019-03-03T05:35:18.702Z,46.97
2019-03-03T05:37:49.050Z,42.60
2019-03-03T05:40:19.410Z,47.70
2019-03-03T05:42:49.789Z,36.97
2019-03-03T05:45:20.050Z,40.83
2019-03-03T05:47:50.395Z,38.17
2019-03-03T05:50:21.550Z,46.10
2019-03-03T05:52:52.554Z,37.90
2019-03-03T05:55:23.503Z,39.17
2019-03-03T05:57:53.885Z,35.97
2019-03-03T06:00:24.159Z,39.47
2019-03-03T06:02:55.563Z,37.53
2019-03-03T06:05:25.964Z,38.40
2019-03-03T06:07:56.239Z,35.77
2019-03-03T06:10:26.499Z,35.27
2019-03-03T06:12:56.783Z,29.53
2019-03-03T06:15:27.925Z,38.73
2019-03-03T06:17:58.287Z,31.03
2019-03-03T06:20:28.634Z,34.40
2019-03-03T06:22:58.910Z,39.03
2019-03-03T06:25:29.169Z,37.43
2019-03-03T06:27:59.559Z,35.87
2019-03-03T06:30:29.908Z,35.53
2019-03-03T06:33:00.191Z,33.97
2019-03-03T06:35:30.583Z,38.53
2019-03-03T06:38:00.925Z,36.70
2019-03-03T06:40:31.219Z,35.13
2019-03-03T06:43:01.481Z,35.00
2019-03-03T06:45:31.814Z,35.80
2019-03-03T06:48:02.080Z,39.73
2019-03-03T06:50:32.453Z,35.20
2019-03-03T06:53:02.745Z,37.23
2019-03-03T06:55:33.014Z,37.13
2019-03-03T06:58:03.282Z,36.40
2019-03-03T07:00:34.563Z,37.63
2019-03-03T07:03:04.932Z,34.50
2019-03-03T07:05:35.267Z,35.87
2019-03-03T07:08:05.646Z,33.23
2019-03-03T07:10:35.998Z,34.67
2019-03-03T07:13:06.309Z,36.93
2019-03-03T07:15:37.416Z,33.27
2019-03-03T07:18:07.767Z,32.43
2019-03-03T07:20:38.154Z,37.77
2019-03-03T07:23:08.495Z,34.57
2019-03-03T07:25:38.774Z,35.27
2019-03-03T07:28:09.281Z,34.80
2019-03-03T07:30:39.668Z,35.00
2019-03-03T07:33:11.601Z,32.73
2019-03-03T07:35:42.046Z,35.13
2019-03-03T07:38:12.420Z,32.40
2019-03-03T07:40:42.709Z,31.03
2019-03-03T07:43:13.102Z,33.10
2019-03-03T07:45:43.497Z,35.87
2019-03-03T07:48:13.840Z,29.63
2019-03-03T07:50:44.209Z,31.57
2019-03-03T07:53:14.491Z,30.30
2019-03-03T07:55:44.767Z,33.37
2019-03-03T07:58:15.111Z,35.67
2019-03-03T08:00:46.471Z,34.20
2019-03-03T08:03:16.747Z,33.77
2019-03-03T08:05:47.109Z,33.70
2019-03-03T08:08:17.394Z,31.30
2019-03-03T08:10:47.763Z,33.03
2019-03-03T08:13:18.161Z,28.10
2019-03-03T08:15:51.018Z,30.77
2019-03-03T08:18:21.518Z,29.10
2019-03-03T08:20:51.866Z,29.13
2019-03-03T08:23:22.150Z,30.50
2019-03-03T08:25:52.506Z,26.30
2019-03-03T08:28:22.765Z,30.47
2019-03-03T08:30:53.028Z,25.77
2019-03-03T08:33:23.383Z,26.40
2019-03-03T08:35:53.699Z,25.17
2019-03-03T08:38:24.025Z,25.73
2019-03-03T08:40:54.378Z,24.23
2019-03-03T08:51:09.249Z,23.37
2019-03-03T09:01:24.091Z,19.40
2019-03-03T09:08:12.083Z,21.70
2019-03-03T09:10:50.208Z,19.93
2019-03-03T09:13:22.159Z,24.93
2019-03-03T09:16:12.868Z,20.90
2019-03-03T09:18:50.542Z,17.33
2019-03-03T09:21:38.987Z,19.80
2019-03-03T09:24:27.092Z,20.60
2019-03-03T09:27:17.317Z,21.10
2019-03-03T09:29:54.980Z,17.17
2019-03-03T09:32:36.643Z,19.93
2019-03-03T09:35:20.541Z,14.77
2019-03-03T09:38:04.831Z,13.93
2019-03-03T09:40:45.794Z,17.77
2019-03-03T09:43:22.960Z,14.20
2019-03-03T09:45:56.872Z,16.23
2019-03-03T09:48:31.709Z,14.03
2019-03-03T09:51:10.836Z,15.50
2019-03-03T09:53:54.638Z,21.83
2019-03-03T09:56:40.775Z,13.20
2019-03-03T10:03:05.757Z,15.03
2019-03-03T10:05:48.250Z,16.43
2019-03-03T10:08:26.853Z,15.93
2019-03-03T10:15:29.983Z,14.40
2019-03-03T10:18:18.359Z,10.67
2019-03-03T10:20:59.875Z,12.13
2019-03-03T10:38:49.595Z,9.47
2019-03-03T10:41:25.954Z,9.00
2019-03-03T10:44:00.681Z,9.87
2019-03-03T10:46:47.905Z,11.53
2019-03-03T10:49:42.468Z,12.23
2019-03-03T10:52:27.474Z,10.00
2019-03-03T10:55:08.176Z,9.23
2019-03-03T10:57:44.488Z,11.37
2019-03-03T11:00:30.023Z,12.67
2019-03-03T11:11:39.664Z,6.90
2019-03-03T11:14:20.479Z,10.47
2019-03-03T11:16:52.633Z,7.73
2019-03-03T11:19:38.123Z,8.00
2019-03-03T11:22:12.955Z,11.73
2019-03-03T11:24:44.998Z,9.83
2019-03-03T11:27:19.663Z,11.00
2019-03-03T11:29:51.641Z,8.33
2019-03-03T11:32:29.760Z,9.57
2019-03-03T11:35:01.977Z,10.37
2019-03-03T11:37:37.527Z,9.17
2019-03-03T11:40:13.128Z,6.97
2019-03-03T11:43:01.671Z,7.27
2019-03-03T11:45:36.625Z,6.87
2019-03-03T11:48:14.523Z,6.53
2019-03-03T11:50:52.199Z,10.00
2019-03-03T11:53:31.711Z,8.10
2019-03-03T11:56:12.895Z,10.77
2019-03-03T11:59:03.076Z,5.77
2019-03-03T12:01:47.974Z,10.17
2019-03-03T12:04:28.936Z,8.50
2019-03-03T12:07:00.914Z,10.73
2019-03-03T12:09:52.258Z,7.37
2019-03-03T12:12:40.328Z,8.13
2019-03-03T12:15:21.103Z,8.33
2019-03-03T12:18:09.213Z,6.63
2019-03-03T12:20:41.928Z,8.40
2019-03-03T12:23:19.635Z,6.20
2019-03-03T12:25:54.018Z,9.00
2019-03-03T12:28:42.132Z,13.57
2019-03-03T12:31:15.466Z,7.10
2019-03-03T12:33:49.023Z,8.43
2019-03-03T12:36:37.273Z,7.53
2019-03-03T12:39:09.376Z,8.33
2019-03-03T12:41:51.522Z,8.60
2019-03-03T12:44:26.287Z,7.83
2019-03-03T12:47:06.915Z,8.13
2019-03-03T12:49:55.338Z,5.70
2019-03-03T12:52:39.475Z,7.73
2019-03-03T12:55:20.529Z,7.73
2019-03-03T12:57:52.400Z,6.87
2019-03-03T13:00:36.342Z,5.77
2019-03-03T13:03:24.931Z,6.50
2019-03-03T13:06:13.345Z,7.03
2019-03-03T13:08:59.402Z,6.17
2019-03-03T13:11:30.910Z,6.47
2019-03-03T13:14:05.888Z,11.00
2019-03-03T13:16:40.847Z,8.53
2019-03-03T13:19:18.495Z,7.10
2019-03-03T13:22:06.683Z,9.20
2019-03-03T13:24:38.788Z,8.07
2019-03-03T13:27:10.790Z,9.03
2019-03-03T13:29:42.886Z,7.37
2019-03-03T13:32:17.839Z,7.87
2019-03-03T13:34:50.990Z,7.90
2019-03-03T13:37:37.307Z,8.13
2019-03-03T13:40:13.748Z,8.07
2019-03-03T13:42:45.713Z,10.23
2019-03-03T13:45:16.000Z,7.60
2019-03-03T13:47:46.255Z,8.23
2019-03-03T13:50:16.613Z,11.60
2019-03-03T13:52:46.964Z,12.77
2019-03-03T13:55:17.504Z,8.27
2019-03-03T13:57:47.770Z,11.63
2019-03-03T14:36:22.414Z,8.63
2019-03-03T15:02:53.594Z,7.40
2019-03-03T15:09:24.618Z,10.97
2019-03-03T15:21:59.151Z,7.87
2019-03-03T15:24:32.581Z,11.30
2019-03-03T15:27:03.221Z,11.70
2019-03-03T15:29:33.511Z,10.43
2019-03-03T15:32:03.828Z,9.80
2019-03-03T15:45:57.430Z,12.17
2019-03-03T16:16:44.313Z,11.30
2019-03-03T16:57:02.266Z,14.00
2019-03-03T16:59:35.118Z,13.00
2019-03-03T17:09:16.955Z,12.27
2019-03-03T17:11:47.709Z,9.67
2019-03-03T17:14:18.050Z,13.87
2019-03-03T17:24:32.491Z,11.50
2019-03-03T17:27:04.640Z,11.00
2019-03-03T17:29:34.866Z,19.07
2019-03-03T17:32:05.325Z,10.57
2019-03-03T17:42:37.236Z,10.60
2019-03-03T17:45:34.292Z,14.93
2019-03-03T17:48:06.174Z,12.93
2019-03-03T17:54:36.578Z,10.63
2019-03-03T17:57:07.064Z,12.83
2019-03-03T17:59:42.102Z,12.30
2019-03-03T18:02:19.538Z,10.47
2019-03-03T18:05:41.923Z,13.90
2019-03-03T18:08:12.355Z,15.17
2019-03-03T18:11:07.340Z,19.33
2019-03-03T18:13:37.878Z,13.67
2019-03-03T18:16:09.100Z,12.57
2019-03-03T18:18:39.461Z,14.97
2019-03-03T18:21:10.308Z,14.43
2019-03-03T18:28:03.557Z,17.57
2019-03-03T18:30:35.001Z,14.70
2019-03-03T18:33:05.340Z,12.50
2019-03-03T18:35:57.820Z,18.33
2019-03-03T18:43:01.559Z,14.17
2019-03-03T18:49:51.328Z,14.73
2019-03-03T18:53:11.008Z,11.83
2019-03-03T18:56:11.377Z,12.80
2019-03-03T19:14:30.168Z,12.30
2019-03-03T19:17:00.594Z,13.00
2019-03-03T19:19:32.913Z,12.40
2019-03-03T19:22:04.100Z,13.90
2019-03-03T19:24:37.365Z,13.67
2019-03-03T19:27:07.817Z,14.27
2019-03-03T19:29:40.170Z,13.67
2019-03-03T19:32:11.494Z,15.57
2019-03-03T19:34:47.629Z,13.27
2019-03-03T19:37:23.378Z,20.80
2019-03-03T19:39:54.138Z,14.63
2019-03-03T19:42:24.626Z,18.70
2019-03-03T19:44:55.083Z,13.50
2019-03-03T19:47:25.399Z,15.50
2019-03-03T19:49:55.593Z,14.50
2019-03-03T19:52:28.755Z,15.80
2019-03-03T19:54:58.229Z,10.60
2019-03-03T19:57:31.094Z,12.37
2019-03-03T20:00:04.173Z,14.27
2019-03-03T20:02:37.026Z,12.40
2019-03-03T20:05:07.295Z,13.03
2019-03-03T20:07:38.519Z,22.07
2019-03-03T20:10:15.674Z,9.20
2019-03-03T20:12:48.349Z,10.97
2019-03-03T20:15:23.747Z,10.17
2019-03-03T20:24:50.919Z,14.27
2019-03-03T20:27:24.104Z,11.50
2019-03-03T20:32:47.521Z,12.23
2019-03-03T20:53:47.062Z,15.20
2019-03-03T20:56:18.857Z,13.50
2019-03-03T20:58:53.993Z,8.07
2019-03-03T21:01:24.514Z,8.90
2019-03-03T21:03:54.800Z,10.80
2019-03-03T21:06:25.075Z,10.90
2019-03-03T21:08:55.384Z,10.07
2019-03-03T21:11:26.206Z,11.47
2019-03-03T21:13:56.907Z,11.43
2019-03-03T21:16:27.351Z,10.10
2019-03-03T21:18:57.810Z,14.53
2019-03-03T21:21:28.594Z,9.23
2019-03-03T21:28:27.766Z,10.93
2019-03-03T21:30:59.013Z,8.73
2019-03-03T21:33:29.278Z,11.03
2019-03-03T21:36:30.932Z,8.50
2019-03-03T21:39:38.601Z,15.77
2019-03-03T21:42:08.926Z,10.70
2019-03-03T21:45:15.090Z,10.47
2019-03-03T21:47:47.510Z,12.87
2019-03-03T21:50:19.787Z,10.30
2019-03-03T21:52:50.614Z,9.50
2019-03-03T21:55:21.015Z,9.33
2019-03-03T21:57:51.354Z,9.10
2019-03-03T22:00:27.427Z,7.53
2019-03-03T22:02:57.835Z,10.80
2019-03-03T22:05:31.956Z,8.73
2019-03-03T22:08:02.226Z,11.87
2019-03-03T22:10:33.630Z,8.30
2019-03-03T22:13:08.581Z,11.53
2019-03-03T22:15:39.062Z,11.00
2019-03-03T22:18:10.722Z,13.70
2019-03-03T22:20:42.879Z,12.17
2019-03-03T22:23:13.645Z,12.13
2019-03-03T22:25:43.997Z,9.30
2019-03-03T22:28:15.587Z,9.03
2019-03-03T22:30:46.049Z,13.33
2019-03-03T22:33:16.402Z,9.10
2019-03-03T22:36:59.915Z,9.50
2019-03-03T22:39:30.251Z,12.80
2019-03-03T22:42:00.547Z,10.30
2019-03-03T22:44:30.778Z,7.23
2019-03-03T22:47:01.179Z,11.73
2019-03-03T22:49:31.582Z,11.80
2019-03-03T22:52:02.646Z,11.33
2019-03-03T22:54:48.090Z,9.57
2019-03-03T22:57:18.352Z,8.70
2019-03-03T23:00:21.759Z,11.30
2019-03-03T23:02:53.658Z,9.37
2019-03-03T23:05:36.064Z,14.50
2019-03-03T23:08:09.676Z,9.90
2019-03-03T23:10:47.040Z,8.43
2019-03-03T23:13:32.830Z,9.53
2019-03-03T23:16:09.030Z,6.87
2019-03-03T23:18:54.450Z,7.83
2019-03-03T23:21:37.050Z,10.27
2019-03-03T23:24:36.260Z,9.37
2019-03-03T23:27:07.193Z,9.23
2019-03-03T23:29:39.273Z,6.33
2019-03-03T23:32:12.295Z,8.33
2019-03-03T23:35:48.096Z,8.40
2019-03-03T23:38:31.757Z,11.23
2019-03-03T23:41:02.041Z,7.50
2019-03-03T23:43:32.390Z,9.30
2019-03-03T23:46:05.545Z,6.80
2019-03-03T23:48:35.878Z,10.07
2019-03-03T23:51:06.237Z,8.07
2019-03-03T23:53:36.820Z,7.40
2019-03-03T23:56:07.147Z,6.60
2019-03-03T23:58:37.473Z,6.10
